Pagina principale
METAR-TAF:

METAR-TAF

Aeroporti :

Aeroporto di Sármellék

Hévíz, Ungheria

latitudine: 46-41-11N, longitudine: 017-09-33E, altezza: 124 m

Osservazione

Il bollettino è stato emesso 59 minuti fa, alle 08:45 UTC
Vento 2 kt da est/nord-est
Temperature 16°C
Umidità 77%
Pressione 1022 hPa
Visibilità: 8000 m

METAR: LHSM 170845Z 06002KT 8000 NSC 16/12 Q1022 BECMG CAVOK

Ora: 11:44 (09:44 UTC)

Previsione

Il bollettino è stato emesso 1 ora e 29 minuti fa, alle 08:15 UTC
Previsione valida dal 17 alle 09 UTC al 17 alle 18 UTC
Vento 3 kt da direzioni variabili
Visibilità 10 km o più
nessuna nube inferiore a 1500 m e nessun cumulonembo

TAF: LHSM 170815Z 1709/1718 VRB03KT CAVOK

Osservazioni e previsioni meteorologiche di più di 4000 aeroporti (messaggi METAR e TAF).

Le stazioni disponibili sono rappresentate dai dischi gialli e rossi sulla carta.

Puntare il mouse per vedere il nome della stazione.

Clicca sopra per visualizzare le osservazioni e previsioni meteorologiche.

Per cambiare la mappa : fare clic sui pulsanti verdi con una croce nera per ingrandire, il pulsante verde con un trattino per diminuire, o sulla freccia verde per le mappe adiacenti.


METAR-TAF: